sensor_id;sensor_type;location;lat;lon;timestamp;temperature;humidity
85696;DHT22;76240;50.902;3.892;2024-03-17T00:02:14;9.80;78.40
85696;DHT22;76240;50.902;3.892;2024-03-17T00:04:40;9.80;78.30
85696;DHT22;76240;50.902;3.892;2024-03-17T00:07:06;9.70;78.30
85696;DHT22;76240;50.902;3.892;2024-03-17T00:09:32;9.80;78.20
85696;DHT22;76240;50.902;3.892;2024-03-17T00:11:58;9.70;78.30
85696;DHT22;76240;50.902;3.892;2024-03-17T00:14:26;9.60;78.70
85696;DHT22;76240;50.902;3.892;2024-03-17T00:16:53;9.50;79.00
85696;DHT22;76240;50.902;3.892;2024-03-17T00:19:20;9.50;79.20
85696;DHT22;76240;50.902;3.892;2024-03-17T00:21:49;9.50;79.10
85696;DHT22;76240;50.902;3.892;2024-03-17T00:24:19;9.40;79.30
85696;DHT22;76240;50.902;3.892;2024-03-17T00:26:46;9.30;79.70
85696;DHT22;76240;50.902;3.892;2024-03-17T00:29:12;9.20;80.10
85696;DHT22;76240;50.902;3.892;2024-03-17T00:31:38;9.10;80.30
85696;DHT22;76240;50.902;3.892;2024-03-17T00:34:04;9.20;80.30
85696;DHT22;76240;50.902;3.892;2024-03-17T00:36:30;9.20;80.30
85696;DHT22;76240;50.902;3.892;2024-03-17T00:38:57;9.10;80.40
85696;DHT22;76240;50.902;3.892;2024-03-17T00:41:23;9.10;80.70
85696;DHT22;76240;50.902;3.892;2024-03-17T00:43:49;9.10;80.90
85696;DHT22;76240;50.902;3.892;2024-03-17T00:46:16;9.10;80.60
85696;DHT22;76240;50.902;3.892;2024-03-17T00:48:43;9.10;80.80
85696;DHT22;76240;50.902;3.892;2024-03-17T00:51:12;9.10;80.80
85696;DHT22;76240;50.902;3.892;2024-03-17T00:53:38;9.20;80.40
85696;DHT22;76240;50.902;3.892;2024-03-17T00:56:04;9.20;80.30
85696;DHT22;76240;50.902;3.892;2024-03-17T00:58:30;9.30;80.10
85696;DHT22;76240;50.902;3.892;2024-03-17T01:00:56;9.30;79.90
85696;DHT22;76240;50.902;3.892;2024-03-17T01:03:22;9.30;80.10
85696;DHT22;76240;50.902;3.892;2024-03-17T01:05:48;9.30;79.90
85696;DHT22;76240;50.902;3.892;2024-03-17T01:08:18;9.40;80.00
85696;DHT22;76240;50.902;3.892;2024-03-17T01:10:45;9.30;80.10
85696;DHT22;76240;50.902;3.892;2024-03-17T01:13:13;9.50;79.90
85696;DHT22;76240;50.902;3.892;2024-03-17T01:15:39;9.60;79.30
85696;DHT22;76240;50.902;3.892;2024-03-17T01:18:06;9.50;79.70
85696;DHT22;76240;50.902;3.892;2024-03-17T01:20:33;9.50;79.50
85696;DHT22;76240;50.902;3.892;2024-03-17T01:23:00;9.40;79.90
85696;DHT22;76240;50.902;3.892;2024-03-17T01:25:25;9.40;80.20
85696;DHT22;76240;50.902;3.892;2024-03-17T01:27:52;9.40;80.00
85696;DHT22;76240;50.902;3.892;2024-03-17T01:30:19;9.30;80.40
85696;DHT22;76240;50.902;3.892;2024-03-17T01:32:48;9.20;80.60
85696;DHT22;76240;50.902;3.892;2024-03-17T01:35:16;9.20;80.50
85696;DHT22;76240;50.902;3.892;2024-03-17T01:37:42;9.10;81.10
85696;DHT22;76240;50.902;3.892;2024-03-17T01:40:10;8.90;81.50
85696;DHT22;76240;50.902;3.892;2024-03-17T01:42:40;9.10;81.50
85696;DHT22;76240;50.902;3.892;2024-03-17T01:45:29;9.10;81.10
85696;DHT22;76240;50.902;3.892;2024-03-17T01:47:56;9.10;81.40
85696;DHT22;76240;50.902;3.892;2024-03-17T01:50:26;9.00;81.60
85696;DHT22;76240;50.902;3.892;2024-03-17T01:52:57;9.10;81.30
85696;DHT22;76240;50.902;3.892;2024-03-17T01:55:28;9.10;81.00
85696;DHT22;76240;50.902;3.892;2024-03-17T01:57:54;9.20;80.80
85696;DHT22;76240;50.902;3.892;2024-03-17T02:00:20;9.10;81.00
85696;DHT22;76240;50.902;3.892;2024-03-17T02:02:46;8.90;81.80
85696;DHT22;76240;50.902;3.892;2024-03-17T02:05:13;9.00;81.90
85696;DHT22;76240;50.902;3.892;2024-03-17T02:07:39;9.00;81.90
85696;DHT22;76240;50.902;3.892;2024-03-17T02:10:07;9.10;81.50
85696;DHT22;76240;50.902;3.892;2024-03-17T02:12:34;9.20;81.20
85696;DHT22;76240;50.902;3.892;2024-03-17T02:15:01;9.20;81.40
85696;DHT22;76240;50.902;3.892;2024-03-17T02:17:33;9.10;81.30
85696;DHT22;76240;50.902;3.892;2024-03-17T02:20:00;9.00;81.80
85696;DHT22;76240;50.902;3.892;2024-03-17T02:22:26;9.10;81.70
85696;DHT22;76240;50.902;3.892;2024-03-17T02:24:53;9.10;81.40
85696;DHT22;76240;50.902;3.892;2024-03-17T02:27:19;9.10;81.70
85696;DHT22;76240;50.902;3.892;2024-03-17T02:29:45;9.10;81.50
85696;DHT22;76240;50.902;3.892;2024-03-17T02:32:11;9.10;81.30
85696;DHT22;76240;50.902;3.892;2024-03-17T02:34:38;9.00;82.00
85696;DHT22;76240;50.902;3.892;2024-03-17T02:37:05;9.00;82.20
85696;DHT22;76240;50.902;3.892;2024-03-17T02:39:36;8.80;82.60
85696;DHT22;76240;50.902;3.892;2024-03-17T02:42:06;8.90;82.80
85696;DHT22;76240;50.902;3.892;2024-03-17T02:44:33;8.90;82.20
85696;DHT22;76240;50.902;3.892;2024-03-17T02:47:00;8.90;82.40
85696;DHT22;76240;50.902;3.892;2024-03-17T02:49:27;8.90;82.50
85696;DHT22;76240;50.902;3.892;2024-03-17T02:51:56;8.90;82.50
85696;DHT22;76240;50.902;3.892;2024-03-17T02:54:22;9.00;82.50
85696;DHT22;76240;50.902;3.892;2024-03-17T02:56:49;9.00;82.30
85696;DHT22;76240;50.902;3.892;2024-03-17T02:59:15;9.10;81.90
85696;DHT22;76240;50.902;3.892;2024-03-17T03:01:41;9.00;81.80
85696;DHT22;76240;50.902;3.892;2024-03-17T03:04:07;9.00;82.10
85696;DHT22;76240;50.902;3.892;2024-03-17T03:06:33;8.90;82.30
85696;DHT22;76240;50.902;3.892;2024-03-17T03:08:59;8.90;82.50
85696;DHT22;76240;50.902;3.892;2024-03-17T03:11:25;8.90;82.40
85696;DHT22;76240;50.902;3.892;2024-03-17T03:13:51;8.90;82.60
85696;DHT22;76240;50.902;3.892;2024-03-17T03:16:17;8.90;82.90
85696;DHT22;76240;50.902;3.892;2024-03-17T03:18:46;8.90;82.60
85696;DHT22;76240;50.902;3.892;2024-03-17T03:21:12;9.00;82.60
85696;DHT22;76240;50.902;3.892;2024-03-17T03:23:38;8.90;82.80
85696;DHT22;76240;50.902;3.892;2024-03-17T03:26:04;8.90;82.60
85696;DHT22;76240;50.902;3.892;2024-03-17T03:28:32;9.00;82.50
85696;DHT22;76240;50.902;3.892;2024-03-17T03:30:59;9.00;82.30
85696;DHT22;76240;50.902;3.892;2024-03-17T03:33:25;9.00;82.30
85696;DHT22;76240;50.902;3.892;2024-03-17T03:35:51;9.00;82.30
85696;DHT22;76240;50.902;3.892;2024-03-17T03:38:18;9.10;82.40
85696;DHT22;76240;50.902;3.892;2024-03-17T03:40:45;9.10;82.20
85696;DHT22;76240;50.902;3.892;2024-03-17T03:43:11;9.10;82.30
85696;DHT22;76240;50.902;3.892;2024-03-17T03:45:38;9.10;82.10
85696;DHT22;76240;50.902;3.892;2024-03-17T03:48:04;9.00;82.50
85696;DHT22;76240;50.902;3.892;2024-03-17T03:50:31;9.00;82.70
85696;DHT22;76240;50.902;3.892;2024-03-17T03:52:57;9.00;82.60
85696;DHT22;76240;50.902;3.892;2024-03-17T03:55:24;9.10;82.40
85696;DHT22;76240;50.902;3.892;2024-03-17T03:57:50;9.20;82.20
85696;DHT22;76240;50.902;3.892;2024-03-17T04:00:20;9.20;81.90
85696;DHT22;76240;50.902;3.892;2024-03-17T04:02:48;9.20;82.30
85696;DHT22;76240;50.902;3.892;2024-03-17T04:05:15;9.30;81.80
85696;DHT22;76240;50.902;3.892;2024-03-17T04:07:42;9.40;81.70
85696;DHT22;76240;50.902;3.892;2024-03-17T04:10:09;9.40;81.60
85696;DHT22;76240;50.902;3.892;2024-03-17T04:12:35;9.40;81.80
85696;DHT22;76240;50.902;3.892;2024-03-17T04:15:01;9.40;81.80
85696;DHT22;76240;50.902;3.892;2024-03-17T04:17:28;9.40;81.90
85696;DHT22;76240;50.902;3.892;2024-03-17T04:19:54;9.40;81.70
85696;DHT22;76240;50.902;3.892;2024-03-17T04:22:21;9.40;81.40
85696;DHT22;76240;50.902;3.892;2024-03-17T04:24:51;9.40;81.30
85696;DHT22;76240;50.902;3.892;2024-03-17T04:27:24;9.30;81.70
85696;DHT22;76240;50.902;3.892;2024-03-17T04:29:52;9.40;81.60
85696;DHT22;76240;50.902;3.892;2024-03-17T04:32:19;9.40;81.60
85696;DHT22;76240;50.902;3.892;2024-03-17T04:34:45;9.50;81.60
85696;DHT22;76240;50.902;3.892;2024-03-17T04:37:12;9.40;81.70
85696;DHT22;76240;50.902;3.892;2024-03-17T04:39:41;9.30;82.00
85696;DHT22;76240;50.902;3.892;2024-03-17T04:42:11;9.20;82.30
85696;DHT22;76240;50.902;3.892;2024-03-17T04:44:37;9.20;82.50
85696;DHT22;76240;50.902;3.892;2024-03-17T04:47:04;9.10;82.60
85696;DHT22;76240;50.902;3.892;2024-03-17T04:49:43;9.20;82.50
85696;DHT22;76240;50.902;3.892;2024-03-17T04:52:12;9.30;82.20
85696;DHT22;76240;50.902;3.892;2024-03-17T04:54:38;9.20;82.60
85696;DHT22;76240;50.902;3.892;2024-03-17T04:57:07;9.20;82.80
85696;DHT22;76240;50.902;3.892;2024-03-17T04:59:34;9.20;82.80
85696;DHT22;76240;50.902;3.892;2024-03-17T05:02:00;9.20;82.90
85696;DHT22;76240;50.902;3.892;2024-03-17T05:04:28;9.20;82.80
85696;DHT22;76240;50.902;3.892;2024-03-17T05:06:54;9.30;82.70
85696;DHT22;76240;50.902;3.892;2024-03-17T05:09:19;9.30;82.90
85696;DHT22;76240;50.902;3.892;2024-03-17T05:11:46;9.30;83.60
85696;DHT22;76240;50.902;3.892;2024-03-17T05:14:13;9.50;82.40
85696;DHT22;76240;50.902;3.892;2024-03-17T05:16:39;9.50;82.10
85696;DHT22;76240;50.902;3.892;2024-03-17T05:19:05;9.40;82.00
85696;DHT22;76240;50.902;3.892;2024-03-17T05:21:31;9.50;82.10
85696;DHT22;76240;50.902;3.892;2024-03-17T05:23:57;9.40;82.20
85696;DHT22;76240;50.902;3.892;2024-03-17T05:26:24;9.50;82.10
85696;DHT22;76240;50.902;3.892;2024-03-17T05:28:50;9.40;82.40
85696;DHT22;76240;50.902;3.892;2024-03-17T05:31:17;9.30;82.70
85696;DHT22;76240;50.902;3.892;2024-03-17T05:33:44;9.30;82.70
85696;DHT22;76240;50.902;3.892;2024-03-17T05:36:10;9.20;83.10
85696;DHT22;76240;50.902;3.892;2024-03-17T05:38:36;9.10;83.50
85696;DHT22;76240;50.902;3.892;2024-03-17T05:41:05;9.00;83.90
85696;DHT22;76240;50.902;3.892;2024-03-17T05:43:33;9.20;83.70
85696;DHT22;76240;50.902;3.892;2024-03-17T05:46:01;9.10;83.70
85696;DHT22;76240;50.902;3.892;2024-03-17T05:48:28;9.10;83.70
85696;DHT22;76240;50.902;3.892;2024-03-17T05:50:54;9.20;83.40
85696;DHT22;76240;50.902;3.892;2024-03-17T05:53:21;9.20;83.30
85696;DHT22;76240;50.902;3.892;2024-03-17T05:55:50;9.40;82.90
85696;DHT22;76240;50.902;3.892;2024-03-17T05:58:16;9.40;82.70
85696;DHT22;76240;50.902;3.892;2024-03-17T06:00:42;9.40;82.60
85696;DHT22;76240;50.902;3.892;2024-03-17T06:03:09;9.50;82.30
85696;DHT22;76240;50.902;3.892;2024-03-17T06:05:36;9.50;82.70
85696;DHT22;76240;50.902;3.892;2024-03-17T06:08:03;9.40;82.60
85696;DHT22;76240;50.902;3.892;2024-03-17T06:10:33;9.60;82.40
85696;DHT22;76240;50.902;3.892;2024-03-17T06:13:00;9.70;82.10
85696;DHT22;76240;50.902;3.892;2024-03-17T06:15:26;9.70;81.50
85696;DHT22;76240;50.902;3.892;2024-03-17T06:17:53;9.70;81.80
85696;DHT22;76240;50.902;3.892;2024-03-17T06:20:25;9.60;82.50
85696;DHT22;76240;50.902;3.892;2024-03-17T06:22:55;9.60;82.50
85696;DHT22;76240;50.902;3.892;2024-03-17T06:25:22;9.60;82.40
85696;DHT22;76240;50.902;3.892;2024-03-17T06:27:51;9.60;82.50
85696;DHT22;76240;50.902;3.892;2024-03-17T06:30:18;9.60;82.60
85696;DHT22;76240;50.902;3.892;2024-03-17T06:32:45;9.60;82.40
85696;DHT22;76240;50.902;3.892;2024-03-17T06:35:16;9.60;82.50
85696;DHT22;76240;50.902;3.892;2024-03-17T06:37:47;9.70;82.50
85696;DHT22;76240;50.902;3.892;2024-03-17T06:40:14;9.70;82.40
85696;DHT22;76240;50.902;3.892;2024-03-17T06:42:41;9.80;82.20
85696;DHT22;76240;50.902;3.892;2024-03-17T06:45:07;9.80;82.10
85696;DHT22;76240;50.902;3.892;2024-03-17T06:47:37;9.90;81.60
85696;DHT22;76240;50.902;3.892;2024-03-17T06:50:04;9.90;82.00
85696;DHT22;76240;50.902;3.892;2024-03-17T06:52:30;10.00;81.70
85696;DHT22;76240;50.902;3.892;2024-03-17T06:54:57;10.10;81.30
85696;DHT22;76240;50.902;3.892;2024-03-17T06:57:24;10.10;81.20
85696;DHT22;76240;50.902;3.892;2024-03-17T06:59:50;10.00;81.80
85696;DHT22;76240;50.902;3.892;2024-03-17T07:02:16;10.00;81.80
85696;DHT22;76240;50.902;3.892;2024-03-17T07:04:43;10.00;81.90
85696;DHT22;76240;50.902;3.892;2024-03-17T07:07:09;10.30;81.60
85696;DHT22;76240;50.902;3.892;2024-03-17T07:09:35;10.30;81.30
85696;DHT22;76240;50.902;3.892;2024-03-17T07:12:01;10.30;81.30
85696;DHT22;76240;50.902;3.892;2024-03-17T07:14:27;10.50;80.90
85696;DHT22;76240;50.902;3.892;2024-03-17T07:16:54;10.60;80.40
85696;DHT22;76240;50.902;3.892;2024-03-17T07:19:19;10.60;80.40
85696;DHT22;76240;50.902;3.892;2024-03-17T07:21:45;10.70;80.30
85696;DHT22;76240;50.902;3.892;2024-03-17T07:24:11;10.70;80.30
85696;DHT22;76240;50.902;3.892;2024-03-17T07:26:37;10.70;80.50
85696;DHT22;76240;50.902;3.892;2024-03-17T07:29:03;10.70;80.50
85696;DHT22;76240;50.902;3.892;2024-03-17T07:31:30;10.80;80.60
85696;DHT22;76240;50.902;3.892;2024-03-17T07:33:55;10.80;80.50
85696;DHT22;76240;50.902;3.892;2024-03-17T07:36:21;10.80;80.80
85696;DHT22;76240;50.902;3.892;2024-03-17T07:38:47;10.90;82.00
85696;DHT22;76240;50.902;3.892;2024-03-17T07:41:14;10.80;83.40
85696;DHT22;76240;50.902;3.892;2024-03-17T07:43:40;10.60;84.30
85696;DHT22;76240;50.902;3.892;2024-03-17T07:46:09;10.40;85.90
85696;DHT22;76240;50.902;3.892;2024-03-17T07:48:40;10.40;86.30
85696;DHT22;76240;50.902;3.892;2024-03-17T07:51:09;10.50;86.50
85696;DHT22;76240;50.902;3.892;2024-03-17T07:53:37;10.40;86.90
85696;DHT22;76240;50.902;3.892;2024-03-17T07:56:08;10.50;87.00
85696;DHT22;76240;50.902;3.892;2024-03-17T07:58:39;10.40;86.80
85696;DHT22;76240;50.902;3.892;2024-03-17T08:01:10;10.30;86.70
85696;DHT22;76240;50.902;3.892;2024-03-17T08:03:37;10.30;87.00
85696;DHT22;76240;50.902;3.892;2024-03-17T08:06:05;10.40;86.90
85696;DHT22;76240;50.902;3.892;2024-03-17T08:08:32;10.50;86.80
85696;DHT22;76240;50.902;3.892;2024-03-17T08:10:58;10.50;87.10
85696;DHT22;76240;50.902;3.892;2024-03-17T08:13:25;10.50;88.10
85696;DHT22;76240;50.902;3.892;2024-03-17T08:15:58;10.50;88.60
85696;DHT22;76240;50.902;3.892;2024-03-17T08:18:25;10.50;88.40
85696;DHT22;76240;50.902;3.892;2024-03-17T08:20:53;10.50;88.90
85696;DHT22;76240;50.902;3.892;2024-03-17T08:23:24;10.50;89.50
85696;DHT22;76240;50.902;3.892;2024-03-17T08:25:53;10.40;90.30
85696;DHT22;76240;50.902;3.892;2024-03-17T08:28:20;10.40;90.50
85696;DHT22;76240;50.902;3.892;2024-03-17T08:30:53;10.40;90.90
85696;DHT22;76240;50.902;3.892;2024-03-17T08:33:20;10.30;90.90
85696;DHT22;76240;50.902;3.892;2024-03-17T08:35:59;10.30;91.10
85696;DHT22;76240;50.902;3.892;2024-03-17T08:38:26;10.40;91.40
85696;DHT22;76240;50.902;3.892;2024-03-17T08:40:57;10.30;91.50
85696;DHT22;76240;50.902;3.892;2024-03-17T08:43:23;10.30;91.40
85696;DHT22;76240;50.902;3.892;2024-03-17T08:46:16;10.40;91.90
85696;DHT22;76240;50.902;3.892;2024-03-17T08:48:42;10.50;91.60
85696;DHT22;76240;50.902;3.892;2024-03-17T08:51:08;10.60;91.40
85696;DHT22;76240;50.902;3.892;2024-03-17T08:53:37;10.80;91.50
85696;DHT22;76240;50.902;3.892;2024-03-17T08:56:07;10.70;91.50
85696;DHT22;76240;50.902;3.892;2024-03-17T08:58:33;10.60;91.80
85696;DHT22;76240;50.902;3.892;2024-03-17T09:01:03;10.60;92.00
85696;DHT22;76240;50.902;3.892;2024-03-17T09:03:29;10.70;92.40
85696;DHT22;76240;50.902;3.892;2024-03-17T09:05:55;10.70;92.00
85696;DHT22;76240;50.902;3.892;2024-03-17T09:08:23;10.80;92.00
85696;DHT22;76240;50.902;3.892;2024-03-17T09:10:50;10.80;91.90
85696;DHT22;76240;50.902;3.892;2024-03-17T09:13:22;10.80;92.00
85696;DHT22;76240;50.902;3.892;2024-03-17T09:16:00;10.60;92.60
85696;DHT22;76240;50.902;3.892;2024-03-17T09:18:30;10.70;92.50
85696;DHT22;76240;50.902;3.892;2024-03-17T09:20:59;10.70;92.70
85696;DHT22;76240;50.902;3.892;2024-03-17T09:23:26;10.60;92.90
85696;DHT22;76240;50.902;3.892;2024-03-17T09:26:06;10.60;93.10
85696;DHT22;76240;50.902;3.892;2024-03-17T09:28:36;10.60;93.10
85696;DHT22;76240;50.902;3.892;2024-03-17T09:31:02;10.70;93.20
85696;DHT22;76240;50.902;3.892;2024-03-17T09:33:30;10.80;92.70
85696;DHT22;76240;50.902;3.892;2024-03-17T09:35:56;10.80;92.50
85696;DHT22;76240;50.902;3.892;2024-03-17T09:38:22;10.90;92.60
85696;DHT22;76240;50.902;3.892;2024-03-17T09:40:49;11.10;92.50
85696;DHT22;76240;50.902;3.892;2024-03-17T09:43:18;11.00;92.20
85696;DHT22;76240;50.902;3.892;2024-03-17T09:45:44;11.10;92.10
85696;DHT22;76240;50.902;3.892;2024-03-17T09:48:14;11.20;91.80
85696;DHT22;76240;50.902;3.892;2024-03-17T09:50:41;11.30;91.30
85696;DHT22;76240;50.902;3.892;2024-03-17T09:53:15;11.20;91.70
85696;DHT22;76240;50.902;3.892;2024-03-17T09:55:41;11.30;91.30
85696;DHT22;76240;50.902;3.892;2024-03-17T09:58:15;11.30;91.10
85696;DHT22;76240;50.902;3.892;2024-03-17T10:00:43;11.20;91.40
85696;DHT22;76240;50.902;3.892;2024-03-17T10:03:09;11.30;91.30
85696;DHT22;76240;50.902;3.892;2024-03-17T10:05:35;11.20;91.20
85696;DHT22;76240;50.902;3.892;2024-03-17T10:08:01;11.50;90.90
85696;DHT22;76240;50.902;3.892;2024-03-17T10:10:28;11.40;91.00
85696;DHT22;76240;50.902;3.892;2024-03-17T10:12:54;11.60;91.10
85696;DHT22;76240;50.902;3.892;2024-03-17T10:15:20;11.80;90.90
85696;DHT22;76240;50.902;3.892;2024-03-17T10:17:47;12.00;90.70
85696;DHT22;76240;50.902;3.892;2024-03-17T10:20:17;12.20;90.50
85696;DHT22;76240;50.902;3.892;2024-03-17T10:22:59;12.20;89.80
85696;DHT22;76240;50.902;3.892;2024-03-17T10:25:30;12.20;89.70
85696;DHT22;76240;50.902;3.892;2024-03-17T10:27:56;12.20;90.00
85696;DHT22;76240;50.902;3.892;2024-03-17T10:30:24;12.20;89.60
85696;DHT22;76240;50.902;3.892;2024-03-17T10:32:58;12.30;90.00
85696;DHT22;76240;50.902;3.892;2024-03-17T10:35:31;12.50;88.90
85696;DHT22;76240;50.902;3.892;2024-03-17T10:37:59;12.70;87.60
85696;DHT22;76240;50.902;3.892;2024-03-17T10:40:26;12.90;87.30
85696;DHT22;76240;50.902;3.892;2024-03-17T10:42:52;13.20;87.30
85696;DHT22;76240;50.902;3.892;2024-03-17T10:45:18;13.60;86.30
85696;DHT22;76240;50.902;3.892;2024-03-17T10:47:50;13.80;84.20
85696;DHT22;76240;50.902;3.892;2024-03-17T10:50:22;14.20;83.40
85696;DHT22;76240;50.902;3.892;2024-03-17T10:52:55;14.80;81.30
85696;DHT22;76240;50.902;3.892;2024-03-17T10:55:25;15.10;80.00
85696;DHT22;76240;50.902;3.892;2024-03-17T10:57:53;15.30;79.20
85696;DHT22;76240;50.902;3.892;2024-03-17T11:00:22;15.00;79.80
85696;DHT22;76240;50.902;3.892;2024-03-17T11:02:52;15.20;79.60
85696;DHT22;76240;50.902;3.892;2024-03-17T11:05:26;15.20;79.30
85696;DHT22;76240;50.902;3.892;2024-03-17T11:08:03;15.30;79.90
85696;DHT22;76240;50.902;3.892;2024-03-17T11:10:35;15.20;78.80
85696;DHT22;76240;50.902;3.892;2024-03-17T11:13:03;15.10;79.50
85696;DHT22;76240;50.902;3.892;2024-03-17T11:20:38;15.20;79.50
85696;DHT22;76240;50.902;3.892;2024-03-17T11:23:05;15.20;79.40
85696;DHT22;76240;50.902;3.892;2024-03-17T11:28:03;15.80;78.30
85696;DHT22;76240;50.902;3.892;2024-03-17T11:47:16;17.10;74.80
85696;DHT22;76240;50.902;3.892;2024-03-17T11:49:45;16.90;76.50
85696;DHT22;76240;50.902;3.892;2024-03-17T11:52:15;17.40;73.60
85696;DHT22;76240;50.902;3.892;2024-03-17T11:54:45;17.20;74.10
85696;DHT22;76240;50.902;3.892;2024-03-17T11:57:15;16.80;75.00
85696;DHT22;76240;50.902;3.892;2024-03-17T11:59:48;16.40;76.20
85696;DHT22;76240;50.902;3.892;2024-03-17T12:02:23;16.30;77.90
85696;DHT22;76240;50.902;3.892;2024-03-17T12:04:52;16.40;77.30
85696;DHT22;76240;50.902;3.892;2024-03-17T12:07:19;16.30;76.30
85696;DHT22;76240;50.902;3.892;2024-03-17T12:09:50;16.30;77.60
85696;DHT22;76240;50.902;3.892;2024-03-17T12:12:19;16.40;77.90
85696;DHT22;76240;50.902;3.892;2024-03-17T12:14:47;16.30;78.00
85696;DHT22;76240;50.902;3.892;2024-03-17T12:17:19;16.30;77.80
85696;DHT22;76240;50.902;3.892;2024-03-17T12:19:45;16.40;76.80
85696;DHT22;76240;50.902;3.892;2024-03-17T12:22:17;16.50;77.60
85696;DHT22;76240;50.902;3.892;2024-03-17T12:24:51;17.00;75.70
85696;DHT22;76240;50.902;3.892;2024-03-17T12:27:21;17.40;73.40
85696;DHT22;76240;50.902;3.892;2024-03-17T12:29:53;17.00;73.40
85696;DHT22;76240;50.902;3.892;2024-03-17T12:32:24;16.90;74.70
85696;DHT22;76240;50.902;3.892;2024-03-17T12:34:52;16.90;74.50
85696;DHT22;76240;50.902;3.892;2024-03-17T12:39:44;16.70;75.00
85696;DHT22;76240;50.902;3.892;2024-03-17T12:42:12;16.50;76.20
85696;DHT22;76240;50.902;3.892;2024-03-17T12:44:40;16.70;75.70
85696;DHT22;76240;50.902;3.892;2024-03-17T12:47:18;16.70;75.80
85696;DHT22;76240;50.902;3.892;2024-03-17T12:49:55;16.60;75.60
85696;DHT22;76240;50.902;3.892;2024-03-17T12:52:28;16.70;75.70
85696;DHT22;76240;50.902;3.892;2024-03-17T12:55:07;16.60;75.40
85696;DHT22;76240;50.902;3.892;2024-03-17T13:00:56;16.60;75.40
85696;DHT22;76240;50.902;3.892;2024-03-17T13:03:27;16.50;75.40
85696;DHT22;76240;50.902;3.892;2024-03-17T13:05:54;16.50;75.90
85696;DHT22;76240;50.902;3.892;2024-03-17T13:08:20;16.70;75.80
85696;DHT22;76240;50.902;3.892;2024-03-17T13:10:46;16.90;74.40
85696;DHT22;76240;50.902;3.892;2024-03-17T13:13:13;16.70;75.30
85696;DHT22;76240;50.902;3.892;2024-03-17T13:15:43;16.70;76.50
85696;DHT22;76240;50.902;3.892;2024-03-17T13:18:09;16.40;75.20
85696;DHT22;76240;50.902;3.892;2024-03-17T13:20:37;16.30;76.30
85696;DHT22;76240;50.902;3.892;2024-03-17T13:23:03;16.30;75.90
85696;DHT22;76240;50.902;3.892;2024-03-17T13:25:30;16.20;77.00
85696;DHT22;76240;50.902;3.892;2024-03-17T13:28:00;15.90;78.90
85696;DHT22;76240;50.902;3.892;2024-03-17T13:30:26;15.90;80.40
85696;DHT22;76240;50.902;3.892;2024-03-17T13:32:54;15.90;81.50
85696;DHT22;76240;50.902;3.892;2024-03-17T13:35:31;15.90;81.40
85696;DHT22;76240;50.902;3.892;2024-03-17T13:38:01;15.70;82.30
85696;DHT22;76240;50.902;3.892;2024-03-17T13:40:28;15.60;83.50
85696;DHT22;76240;50.902;3.892;2024-03-17T13:42:55;15.50;82.60
85696;DHT22;76240;50.902;3.892;2024-03-17T13:45:24;15.40;83.40
85696;DHT22;76240;50.902;3.892;2024-03-17T13:47:54;15.40;83.60
85696;DHT22;76240;50.902;3.892;2024-03-17T13:50:21;15.40;83.30
85696;DHT22;76240;50.902;3.892;2024-03-17T13:52:47;15.40;84.30
85696;DHT22;76240;50.902;3.892;2024-03-17T13:55:24;15.40;84.30
85696;DHT22;76240;50.902;3.892;2024-03-17T13:57:53;15.20;85.60
85696;DHT22;76240;50.902;3.892;2024-03-17T14:00:26;14.80;86.90
85696;DHT22;76240;50.902;3.892;2024-03-17T14:02:54;14.80;87.30
85696;DHT22;76240;50.902;3.892;2024-03-17T14:05:22;14.70;87.00
85696;DHT22;76240;50.902;3.892;2024-03-17T14:07:49;14.80;87.20
85696;DHT22;76240;50.902;3.892;2024-03-17T14:10:17;14.80;87.20
85696;DHT22;76240;50.902;3.892;2024-03-17T14:12:43;14.70;87.20
85696;DHT22;76240;50.902;3.892;2024-03-17T14:15:11;14.70;88.30
85696;DHT22;76240;50.902;3.892;2024-03-17T14:17:43;14.80;88.80
85696;DHT22;76240;50.902;3.892;2024-03-17T14:20:10;14.90;87.00
85696;DHT22;76240;50.902;3.892;2024-03-17T14:22:37;14.80;87.80
85696;DHT22;76240;50.902;3.892;2024-03-17T14:25:12;14.70;87.50
85696;DHT22;76240;50.902;3.892;2024-03-17T14:27:38;14.50;88.10
85696;DHT22;76240;50.902;3.892;2024-03-17T14:30:05;14.60;89.10
85696;DHT22;76240;50.902;3.892;2024-03-17T14:32:31;14.70;88.10
85696;DHT22;76240;50.902;3.892;2024-03-17T14:34:57;14.70;88.50
85696;DHT22;76240;50.902;3.892;2024-03-17T14:37:23;14.90;88.20
85696;DHT22;76240;50.902;3.892;2024-03-17T14:39:51;15.00;86.80
85696;DHT22;76240;50.902;3.892;2024-03-17T14:42:18;15.00;86.00
85696;DHT22;76240;50.902;3.892;2024-03-17T14:44:45;15.10;86.30
85696;DHT22;76240;50.902;3.892;2024-03-17T14:47:13;15.10;85.70
85696;DHT22;76240;50.902;3.892;2024-03-17T14:49:39;15.20;85.80
85696;DHT22;76240;50.902;3.892;2024-03-17T14:52:05;15.10;86.60
85696;DHT22;76240;50.902;3.892;2024-03-17T14:54:31;15.00;86.50
85696;DHT22;76240;50.902;3.892;2024-03-17T14:56:58;14.90;87.20
85696;DHT22;76240;50.902;3.892;2024-03-17T14:59:24;14.80;87.80
85696;DHT22;76240;50.902;3.892;2024-03-17T15:01:50;14.70;87.80
85696;DHT22;76240;50.902;3.892;2024-03-17T15:04:16;14.60;87.90
85696;DHT22;76240;50.902;3.892;2024-03-17T15:06:44;14.60;88.00
85696;DHT22;76240;50.902;3.892;2024-03-17T15:09:10;14.50;87.80
85696;DHT22;76240;50.902;3.892;2024-03-17T15:11:37;14.30;89.30
85696;DHT22;76240;50.902;3.892;2024-03-17T15:14:04;14.10;90.30
85696;DHT22;76240;50.902;3.892;2024-03-17T15:16:36;14.10;90.40
85696;DHT22;76240;50.902;3.892;2024-03-17T15:19:02;14.20;90.40
85696;DHT22;76240;50.902;3.892;2024-03-17T15:21:28;14.20;89.80
85696;DHT22;76240;50.902;3.892;2024-03-17T15:23:54;14.30;90.10
85696;DHT22;76240;50.902;3.892;2024-03-17T15:26:21;14.20;90.10
85696;DHT22;76240;50.902;3.892;2024-03-17T15:28:48;14.20;90.10
85696;DHT22;76240;50.902;3.892;2024-03-17T15:31:14;14.20;90.20
85696;DHT22;76240;50.902;3.892;2024-03-17T15:33:40;14.30;90.20
85696;DHT22;76240;50.902;3.892;2024-03-17T15:36:08;14.30;90.30
85696;DHT22;76240;50.902;3.892;2024-03-17T15:38:49;14.20;90.40
85696;DHT22;76240;50.902;3.892;2024-03-17T15:41:15;14.10;90.40
85696;DHT22;76240;50.902;3.892;2024-03-17T15:43:41;14.10;90.80
85696;DHT22;76240;50.902;3.892;2024-03-17T15:46:08;14.10;91.00
85696;DHT22;76240;50.902;3.892;2024-03-17T15:48:34;14.10;90.90
85696;DHT22;76240;50.902;3.892;2024-03-17T15:51:00;14.20;90.70
85696;DHT22;76240;50.902;3.892;2024-03-17T15:53:26;14.20;90.50
85696;DHT22;76240;50.902;3.892;2024-03-17T15:56:00;14.10;90.70
85696;DHT22;76240;50.902;3.892;2024-03-17T15:58:28;14.10;90.60
85696;DHT22;76240;50.902;3.892;2024-03-17T16:00:54;13.90;90.90
85696;DHT22;76240;50.902;3.892;2024-03-17T16:03:21;13.80;91.40
85696;DHT22;76240;50.902;3.892;2024-03-17T16:05:51;13.90;91.30
85696;DHT22;76240;50.902;3.892;2024-03-17T16:08:18;13.90;91.30
85696;DHT22;76240;50.902;3.892;2024-03-17T16:10:50;13.90;91.40
85696;DHT22;76240;50.902;3.892;2024-03-17T16:13:17;13.70;92.10